Time;durP1;ratioP1;P1;durP2;ratioP2;P2;SDS_P1;SDS_P2;PMS_P1;PMS_P2;Temp;Humidity;BMP_temperature;BMP_pressure;BME280_temperature;BME280_humidity;BME280_pressure;Samples;Min_cycle;Max_cycle;Signal;HPM_P1;HPM_P2
2023/12/13 00:00:07;;;;;;;56.58;17.80;;;;;;;;;;5013076;28;20140;-68
2023/12/13 00:02:33;;;;;;;50.45;17.23;;;;;;;;;;5033491;28;20049;-69
2023/12/13 00:04:59;;;;;;;53.90;18.63;;;;;;;;;;5015830;28;20041;-69
2023/12/13 00:07:26;;;;;;;58.75;19.25;;;;;;;;;;5033675;28;20402;-69
2023/12/13 00:09:52;;;;;;;49.58;17.58;;;;;;;;;;5033394;28;20041;-68
2023/12/13 00:12:18;;;;;;;49.10;17.83;;;;;;;;;;5033381;28;20046;-69
2023/12/13 00:14:44;;;;;;;52.85;18.10;;;;;;;;;;5015922;28;20095;-69
2023/12/13 00:17:14;;;;;;;54.22;17.92;;;;;;;;;;5033260;28;20045;-69
2023/12/13 00:19:40;;;;;;;44.95;15.48;;;;;;;;;;5033168;28;20045;-69
2023/12/13 00:22:06;;;;;;;42.15;16.13;;;;;;;;;;5033245;28;20132;-69
2023/12/13 00:24:32;;;;;;;40.70;15.50;;;;;;;;;;5033140;28;20056;-69
2023/12/13 00:26:58;;;;;;;42.08;16.33;;;;;;;;;;5033262;28;20049;-69
2023/12/13 00:29:24;;;;;;;37.03;14.38;;;;;;;;;;4999555;28;20053;-70
2023/12/13 00:31:51;;;;;;;39.30;14.63;;;;;;;;;;5015726;28;20474;-70
2023/12/13 00:34:17;;;;;;;37.25;14.02;;;;;;;;;;5033261;28;20045;-70
2023/12/13 00:36:43;;;;;;;36.08;13.48;;;;;;;;;;5015689;28;20042;-70
2023/12/13 00:39:09;;;;;;;32.90;13.15;;;;;;;;;;5015762;28;20042;-70
2023/12/13 00:41:35;;;;;;;31.35;12.45;;;;;;;;;;5033208;28;20084;-70
2023/12/13 00:44:03;;;;;;;30.38;10.93;;;;;;;;;;4999533;28;20069;-70
2023/12/13 00:46:29;;;;;;;29.23;11.65;;;;;;;;;;5033105;28;20053;-70
2023/12/13 00:48:55;;;;;;;25.63;10.30;;;;;;;;;;5015552;28;20053;-71
2023/12/13 00:51:22;;;;;;;22.20;9.35;;;;;;;;;;5016017;28;20049;-69
2023/12/13 00:53:49;;;;;;;22.27;8.77;;;;;;;;;;5015412;28;20045;-70
2023/12/13 00:56:15;;;;;;;23.13;8.40;;;;;;;;;;5015502;28;20049;-69
2023/12/13 00:58:42;;;;;;;21.57;9.00;;;;;;;;;;5016252;28;20045;-69
2023/12/13 01:01:08;;;;;;;19.77;8.32;;;;;;;;;;5032671;28;20053;-69
2023/12/13 01:03:35;;;;;;;19.63;8.00;;;;;;;;;;5033539;28;20148;-69
2023/12/13 01:06:01;;;;;;;21.45;7.70;;;;;;;;;;5033025;28;20045;-69
2023/12/13 01:08:27;;;;;;;18.93;6.83;;;;;;;;;;5032962;28;20085;-68
2023/12/13 01:10:53;;;;;;;17.77;6.90;;;;;;;;;;5032855;28;20606;-68
2023/12/13 01:13:19;;;;;;;18.90;6.93;;;;;;;;;;5015404;28;20057;-69
2023/12/13 01:15:45;;;;;;;14.43;6.25;;;;;;;;;;5032808;28;20049;-68
2023/12/13 01:18:12;;;;;;;15.20;6.40;;;;;;;;;;5032577;28;20438;-69
2023/12/13 01:20:38;;;;;;;18.27;6.88;;;;;;;;;;5032875;28;20045;-69
2023/12/13 01:23:04;;;;;;;14.98;6.38;;;;;;;;;;5032953;28;20444;-69
2023/12/13 01:25:30;;;;;;;17.13;6.47;;;;;;;;;;5033356;28;20045;-70
2023/12/13 01:27:57;;;;;;;23.60;6.97;;;;;;;;;;5036156;28;20490;-68
2023/12/13 01:30:23;;;;;;;;;;;;;;;;;;5019061;28;20470;-69
2023/12/13 01:32:49;;;;;;;17.27;6.37;;;;;;;;;;5036063;28;20059;-69
2023/12/13 01:35:15;;;;;;;16.85;6.63;;;;;;;;;;5037110;28;20371;-70
2023/12/13 01:37:41;;;;;;;15.45;6.00;;;;;;;;;;5036662;28;20103;-69
2023/12/13 01:40:08;;;;;;;17.65;6.82;;;;;;;;;;5018593;28;20091;-68
2023/12/13 01:42:37;;;;;;;17.70;6.83;;;;;;;;;;5019019;28;20049;-69
2023/12/13 01:45:03;;;;;;;15.30;5.90;;;;;;;;;;5036147;28;20045;-69
2023/12/13 01:47:29;;;;;;;13.02;5.57;;;;;;;;;;5035737;28;20522;-67
2023/12/13 01:49:55;;;;;;;16.35;6.43;;;;;;;;;;5035897;28;20125;-68
2023/12/13 01:52:22;;;;;;;16.70;6.55;;;;;;;;;;5036405;28;20045;-68
2023/12/13 01:54:48;;;;;;;16.63;6.57;;;;;;;;;;5035881;28;20096;-69
2023/12/13 01:57:15;;;;;;;15.43;6.60;;;;;;;;;;5036120;28;20068;-68
2023/12/13 01:59:41;;;;;;;14.97;6.03;;;;;;;;;;5036531;28;20046;-68
2023/12/13 02:02:08;;;;;;;15.43;6.05;;;;;;;;;;5035421;28;20064;-69
2023/12/13 02:04:35;;;;;;;21.38;6.82;;;;;;;;;;5036260;28;20057;-68
2023/12/13 02:07:01;;;;;;;19.75;7.10;;;;;;;;;;5035650;28;20053;-69
2023/12/13 02:09:27;;;;;;;14.57;6.45;;;;;;;;;;5002327;28;20497;-69
2023/12/13 02:11:54;;;;;;;14.05;6.13;;;;;;;;;;5018352;28;20092;-69
2023/12/13 02:14:20;;;;;;;16.98;6.63;;;;;;;;;;5017801;28;20045;-69
2023/12/13 02:16:46;;;;;;;18.67;6.20;;;;;;;;;;5035442;28;20053;-69
2023/12/13 02:19:12;;;;;;;13.88;6.22;;;;;;;;;;5035424;28;20457;-69
2023/12/13 02:21:38;;;;;;;18.98;6.72;;;;;;;;;;5017768;28;20052;-69
2023/12/13 02:24:05;;;;;;;17.75;6.50;;;;;;;;;;5018714;28;20136;-70
2023/12/13 02:26:31;;;;;;;17.05;6.97;;;;;;;;;;5036173;28;20045;-69
2023/12/13 02:28:59;;;;;;;18.57;6.37;;;;;;;;;;5017680;28;20049;-70
2023/12/13 02:31:26;;;;;;;17.65;7.30;;;;;;;;;;5018109;28;20053;-69
2023/12/13 02:33:52;;;;;;;18.23;7.20;;;;;;;;;;5035188;28;20048;-69
2023/12/13 02:36:18;;;;;;;17.50;6.63;;;;;;;;;;5001720;28;20054;-69
2023/12/13 02:38:44;;;;;;;22.85;7.28;;;;;;;;;;5017282;28;20490;-71
2023/12/13 02:41:10;;;;;;;17.85;7.15;;;;;;;;;;5035138;28;20543;-70
2023/12/13 02:43:36;;;;;;;17.58;6.68;;;;;;;;;;5035039;28;20049;-70
2023/12/13 02:46:03;;;;;;;16.85;7.07;;;;;;;;;;5017263;28;20056;-69
2023/12/13 02:48:29;;;;;;;16.33;7.00;;;;;;;;;;5017557;28;20561;-69
2023/12/13 02:50:55;;;;;;;21.13;6.38;;;;;;;;;;5017394;28;20092;-70
2023/12/13 02:53:22;;;;;;;15.18;6.18;;;;;;;;;;5050213;28;20077;-70
2023/12/13 02:55:48;;;;;;;15.73;6.65;;;;;;;;;;5034398;28;20547;-70
2023/12/13 02:58:14;;;;;;;16.20;6.88;;;;;;;;;;5034430;28;20478;-70
2023/12/13 03:00:41;;;;;;;18.07;6.93;;;;;;;;;;5034820;28;20139;-70
2023/12/13 03:03:08;;;;;;;15.30;6.70;;;;;;;;;;5034913;28;20363;-71
2023/12/13 03:05:34;;;;;;;17.58;7.20;;;;;;;;;;5017215;28;20080;-70
2023/12/13 03:08:00;;;;;;;17.77;6.63;;;;;;;;;;5049760;28;20140;-70
2023/12/13 03:10:27;;;;;;;18.65;7.30;;;;;;;;;;5034500;28;20041;-70
2023/12/13 03:12:54;;;;;;;18.65;7.30;;;;;;;;;;5034361;28;20111;-70
2023/12/13 03:15:20;;;;;;;18.80;7.97;;;;;;;;;;5035105;28;20049;-70
2023/12/13 03:17:46;;;;;;;16.67;7.78;;;;;;;;;;5017365;28;20152;-70
2023/12/13 03:20:12;;;;;;;16.52;7.38;;;;;;;;;;5034366;28;20418;-70
2023/12/13 03:22:38;;;;;;;22.05;8.13;;;;;;;;;;5000747;28;20140;-70
2023/12/13 03:25:05;;;;;;;23.40;7.72;;;;;;;;;;5049532;28;20445;-70
2023/12/13 03:27:31;;;;;;;19.20;7.75;;;;;;;;;;5034253;28;20045;-70
2023/12/13 03:29:57;;;;;;;19.02;8.18;;;;;;;;;;5034031;28;20052;-69
2023/12/13 03:32:23;;;;;;;19.30;8.32;;;;;;;;;;5034570;28;20411;-70
2023/12/13 03:34:49;;;;;;;18.10;8.48;;;;;;;;;;5050102;28;20045;-69
2023/12/13 03:37:15;;;;;;;24.75;8.75;;;;;;;;;;5017401;28;20421;-70
2023/12/13 03:39:42;;;;;;;19.17;8.07;;;;;;;;;;5034452;28;20045;-69
2023/12/13 03:42:08;;;;;;;23.85;9.60;;;;;;;;;;5033909;28;20080;-69
2023/12/13 03:44:34;;;;;;;19.25;8.70;;;;;;;;;;5017008;28;20081;-69
2023/12/13 03:47:00;;;;;;;21.27;8.70;;;;;;;;;;5034313;28;20046;-69
2023/12/13 03:49:26;;;;;;;18.58;8.23;;;;;;;;;;5033436;28;20085;-69
2023/12/13 03:51:52;;;;;;;22.77;9.15;;;;;;;;;;5016177;28;20049;-68
2023/12/13 03:54:18;;;;;;;22.52;8.98;;;;;;;;;;5016656;28;20053;-69
2023/12/13 03:56:44;;;;;;;24.52;10.32;;;;;;;;;;5034231;28;20154;-70
2023/12/13 03:59:10;;;;;;;19.30;9.18;;;;;;;;;;5016130;28;20376;-70
2023/12/13 04:01:37;;;;;;;27.92;9.93;;;;;;;;;;5015770;28;20069;-70
2023/12/13 04:04:03;;;;;;;20.90;9.35;;;;;;;;;;5033498;28;20057;-69
2023/12/13 04:06:29;;;;;;;24.50;9.18;;;;;;;;;;5015763;28;20053;-70
2023/12/13 04:08:55;;;;;;;24.95;9.50;;;;;;;;;;5034329;28;20049;-70
2023/12/13 04:11:21;;;;;;;23.10;9.43;;;;;;;;;;5033051;28;20485;-69
2023/12/13 04:13:47;;;;;;;25.88;9.82;;;;;;;;;;5016899;28;20091;-69
2023/12/13 04:16:14;;;;;;;25.08;9.82;;;;;;;;;;5016618;28;20114;-69
2023/12/13 04:18:40;;;;;;;23.42;9.90;;;;;;;;;;5033432;28;20382;-70
2023/12/13 04:21:06;;;;;;;20.08;9.05;;;;;;;;;;5015990;28;20057;-69
2023/12/13 04:23:32;;;;;;;25.48;9.70;;;;;;;;;;5034101;28;20056;-69
2023/12/13 04:25:58;;;;;;;23.75;9.55;;;;;;;;;;5033004;28;20046;-70
2023/12/13 04:28:24;;;;;;;26.17;10.25;;;;;;;;;;5015724;28;20123;-69
2023/12/13 04:30:50;;;;;;;19.02;9.63;;;;;;;;;;5015958;28;20045;-71
2023/12/13 04:33:18;;;;;;;26.10;9.68;;;;;;;;;;5033279;28;20051;-70
2023/12/13 04:35:44;;;;;;;22.08;10.23;;;;;;;;;;5033311;28;20076;-70
2023/12/13 04:38:11;;;;;;;25.05;9.80;;;;;;;;;;5033397;28;20046;-70
2023/12/13 04:40:37;;;;;;;26.30;10.32;;;;;;;;;;5015626;28;20049;-70
2023/12/13 04:43:03;;;;;;;22.70;9.85;;;;;;;;;;5033146;28;20050;-69
2023/12/13 04:45:29;;;;;;;25.53;10.60;;;;;;;;;;5048537;28;20132;-70
2023/12/13 04:47:55;;;;;;;23.52;9.98;;;;;;;;;;5033704;28;20045;-71
2023/12/13 04:50:22;;;;;;;22.20;9.65;;;;;;;;;;5015799;28;20045;-69
2023/12/13 04:52:49;;;;;;;27.98;10.30;;;;;;;;;;5015548;28;20056;-69
2023/12/13 04:55:15;;;;;;;23.70;10.18;;;;;;;;;;5033337;28;20053;-70
2023/12/13 04:57:41;;;;;;;27.23;9.85;;;;;;;;;;5015689;28;20475;-70
2023/12/13 05:00:08;;;;;;;27.10;10.25;;;;;;;;;;5032918;28;20045;-70
2023/12/13 05:02:34;;;;;;;23.10;9.95;;;;;;;;;;5035533;28;20057;-71
2023/12/13 05:05:00;;;;;;;21.27;9.75;;;;;;;;;;5052148;28;20053;-70
2023/12/13 05:07:28;;;;;;;23.02;9.38;;;;;;;;;;5036780;28;20163;-70
2023/12/13 05:09:55;;;;;;;23.33;9.90;;;;;;;;;;5036742;28;20052;-71
2023/12/13 05:12:21;;;;;;;23.25;9.80;;;;;;;;;;5036315;28;20503;-70
2023/12/13 05:14:47;;;;;;;26.73;10.40;;;;;;;;;;5019243;28;20045;-71
2023/12/13 05:17:14;;;;;;;26.10;9.77;;;;;;;;;;5036571;28;20045;-69
2023/12/13 05:19:40;;;;;;;25.95;10.32;;;;;;;;;;5019727;28;20042;-70
2023/12/13 05:22:06;;;;;;;23.00;10.40;;;;;;;;;;5036787;28;20053;-70
2023/12/13 05:24:33;;;;;;;25.52;10.60;;;;;;;;;;5018511;28;20041;-71
2023/12/13 05:26:59;;;;;;;25.70;10.30;;;;;;;;;;5051812;28;20050;-71
2023/12/13 05:29:25;;;;;;;27.17;10.48;;;;;;;;;;5036254;28;20048;-70
2023/12/13 05:31:51;;;;;;;30.20;9.65;;;;;;;;;;5018890;28;20049;-70
2023/12/13 05:34:17;;;;;;;24.58;10.38;;;;;;;;;;5036265;28;20053;-69
2023/12/13 05:36:43;;;;;;;22.92;10.15;;;;;;;;;;5036769;28;20056;-70
2023/12/13 05:39:10;;;;;;;24.58;10.13;;;;;;;;;;5002371;28;20044;-70
2023/12/13 05:41:36;;;;;;;22.60;9.90;;;;;;;;;;5018737;28;20054;-72
2023/12/13 05:44:02;;;;;;;20.98;9.57;;;;;;;;;;5018359;28;20045;-70
2023/12/13 05:46:33;;;;;;;21.58;9.65;;;;;;;;;;5036013;28;20476;-71
2023/12/13 05:49:01;;;;;;;19.75;9.07;;;;;;;;;;5036628;28;20052;-70
2023/12/13 05:51:27;;;;;;;21.52;9.85;;;;;;;;;;5036264;28;20545;-70
2023/12/13 05:53:53;;;;;;;25.77;9.55;;;;;;;;;;5036696;28;20139;-70
2023/12/13 05:56:19;;;;;;;25.27;9.88;;;;;;;;;;5018126;28;20045;-71
2023/12/13 05:58:45;;;;;;;21.00;9.23;;;;;;;;;;5035411;28;20482;-70
2023/12/13 06:01:11;;;;;;;27.70;9.40;;;;;;;;;;5017998;28;20509;-71
2023/12/13 06:03:40;;;;;;;23.88;9.05;;;;;;;;;;5035743;28;20060;-70
2023/12/13 06:06:06;;;;;;;20.52;9.52;;;;;;;;;;5035693;28;20080;-70
2023/12/13 06:08:33;;;;;;;22.63;9.18;;;;;;;;;;5050577;28;20061;-72
2023/12/13 06:10:59;;;;;;;23.35;9.20;;;;;;;;;;5035484;28;20049;-71
2023/12/13 06:13:25;;;;;;;23.80;9.38;;;;;;;;;;5035352;28;20083;-71
2023/12/13 06:15:51;;;;;;;22.05;9.80;;;;;;;;;;5035497;28;20053;-71
2023/12/13 06:18:17;;;;;;;23.63;9.23;;;;;;;;;;5035972;28;20351;-70
2023/12/13 06:20:43;;;;;;;22.50;9.48;;;;;;;;;;5035405;28;20050;-71
2023/12/13 06:23:09;;;;;;;24.25;9.02;;;;;;;;;;5036171;28;20360;-71
2023/12/13 06:25:35;;;;;;;23.20;9.68;;;;;;;;;;5035301;28;20054;-70
2023/12/13 06:28:01;;;;;;;24.73;9.45;;;;;;;;;;5035271;28;20099;-71
2023/12/13 06:30:27;;;;;;;19.50;8.95;;;;;;;;;;5050403;28;20045;-70
2023/12/13 06:32:54;;;;;;;22.58;8.90;;;;;;;;;;5050580;28;20057;-71
2023/12/13 06:35:20;;;;;;;18.67;9.07;;;;;;;;;;5017594;28;20041;-70
2023/12/13 06:37:46;;;;;;;23.75;9.75;;;;;;;;;;5035046;28;20132;-70
2023/12/13 06:40:15;;;;;;;20.50;8.52;;;;;;;;;;5033744;28;20120;-71
2023/12/13 06:42:42;;;;;;;23.73;9.20;;;;;;;;;;5034987;28;20050;-71
2023/12/13 06:45:08;;;;;;;22.15;9.13;;;;;;;;;;5034904;28;20080;-71
2023/12/13 06:47:34;;;;;;;23.98;9.20;;;;;;;;;;5018160;28;20045;-70
2023/12/13 06:50:00;;;;;;;23.67;9.73;;;;;;;;;;5001035;28;20051;-70
2023/12/13 06:52:26;;;;;;;25.45;9.75;;;;;;;;;;5034795;28;20053;-71
2023/12/13 06:54:52;;;;;;;25.60;10.30;;;;;;;;;;5035225;28;20046;-71
2023/12/13 06:57:19;;;;;;;28.38;10.93;;;;;;;;;;5034607;28;20045;-71
2023/12/13 06:59:45;;;;;;;25.80;10.00;;;;;;;;;;5049680;28;20054;-72
2023/12/13 07:02:11;;;;;;;25.52;9.95;;;;;;;;;;5034409;28;20053;-71
2023/12/13 07:04:37;;;;;;;25.25;10.40;;;;;;;;;;5017022;28;20053;-71
2023/12/13 07:07:04;;;;;;;24.45;9.30;;;;;;;;;;5016934;28;20054;-71
2023/12/13 07:09:30;;;;;;;26.40;9.48;;;;;;;;;;5033018;28;20052;-72
2023/12/13 07:11:56;;;;;;;24.38;10.57;;;;;;;;;;5034264;28;20064;-73
2023/12/13 07:14:22;;;;;;;27.90;10.68;;;;;;;;;;5034072;28;20050;-70
2023/12/13 07:16:51;;;;;;;25.10;9.93;;;;;;;;;;5034458;28;20427;-71
2023/12/13 07:19:20;;;;;;;22.30;9.43;;;;;;;;;;5049511;28;20045;-70
2023/12/13 07:21:46;;;;;;;24.10;10.38;;;;;;;;;;5016482;28;20045;-72
2023/12/13 07:24:12;;;;;;;26.00;9.60;;;;;;;;;;5048540;28;20046;-70
2023/12/13 07:26:38;;;;;;;24.83;10.23;;;;;;;;;;5034324;28;20064;-71
2023/12/13 07:29:05;;;;;;;21.40;9.80;;;;;;;;;;5000875;28;20046;-71
2023/12/13 07:31:31;;;;;;;22.20;9.52;;;;;;;;;;5034435;28;20103;-72
2023/12/13 07:33:59;;;;;;;24.73;11.30;;;;;;;;;;5032742;28;20045;-70
2023/12/13 07:36:25;;;;;;;28.15;10.90;;;;;;;;;;5033830;28;20132;-72
2023/12/13 07:38:52;;;;;;;26.45;15.07;;;;;;;;;;5033745;28;20045;-71
2023/12/13 07:41:18;;;;;;;24.98;10.75;;;;;;;;;;5033748;28;20053;-71
2023/12/13 07:43:44;;;;;;;26.20;11.52;;;;;;;;;;5033690;28;20052;-72
2023/12/13 07:46:11;;;;;;;26.52;13.93;;;;;;;;;;5033771;28;20045;-72
2023/12/13 07:48:37;;;;;;;32.38;13.20;;;;;;;;;;5033608;28;20493;-72
2023/12/13 07:51:03;;;;;;;35.30;18.48;;;;;;;;;;5033674;28;20049;-71
2023/12/13 07:53:29;;;;;;;26.77;10.90;;;;;;;;;;5015898;28;20052;-72
2023/12/13 07:55:55;;;;;;;27.77;10.27;;;;;;;;;;5016276;28;20461;-71
2023/12/13 07:58:21;;;;;;;25.67;10.60;;;;;;;;;;5033557;28;20100;-72
2023/12/13 08:00:47;;;;;;;22.50;9.57;;;;;;;;;;5033286;28;20057;-70
2023/12/13 08:03:14;;;;;;;30.25;10.63;;;;;;;;;;5033530;28;20053;-72
2023/12/13 08:05:40;;;;;;;27.88;10.20;;;;;;;;;;5016396;28;20084;-71
2023/12/13 08:08:06;;;;;;;23.80;9.70;;;;;;;;;;5015764;28;20057;-71
2023/12/13 08:10:32;;;;;;;20.42;9.73;;;;;;;;;;5033861;28;20445;-72
2023/12/13 08:12:58;;;;;;;24.35;9.93;;;;;;;;;;5033453;28;20093;-72
2023/12/13 08:15:24;;;;;;;23.73;9.75;;;;;;;;;;5049462;28;20417;-71
2023/12/13 08:17:50;;;;;;;21.10;8.88;;;;;;;;;;5033398;28;20046;-72
2023/12/13 08:20:17;;;;;;;23.88;9.65;;;;;;;;;;5016110;28;20080;-72
2023/12/13 08:22:43;;;;;;;22.80;9.07;;;;;;;;;;5033220;28;20057;-70
2023/12/13 08:25:09;;;;;;;26.38;10.48;;;;;;;;;;5015581;28;20072;-71
2023/12/13 08:27:36;;;;;;;27.83;11.55;;;;;;;;;;5033079;28;20046;-71
2023/12/13 08:30:02;;;;;;;26.30;10.23;;;;;;;;;;5033231;28;20041;-71
2023/12/13 08:32:31;;;;;;;21.25;9.63;;;;;;;;;;5033153;28;20173;-71
2023/12/13 08:34:57;;;;;;;24.40;10.05;;;;;;;;;;5049427;28;20440;-71
2023/12/13 08:37:26;;;;;;;22.40;10.15;;;;;;;;;;5035950;28;20108;-72
2023/12/13 08:39:52;;;;;;;23.35;9.57;;;;;;;;;;5036723;28;20144;-72
2023/12/13 08:42:19;;;;;;;23.05;10.15;;;;;;;;;;5019448;28;20060;-72
2023/12/13 08:44:46;;;;;;;20.50;9.30;;;;;;;;;;5037058;28;20084;-72
2023/12/13 08:47:12;;;;;;;21.58;9.07;;;;;;;;;;5037174;28;20132;-72
2023/12/13 08:49:38;;;;;;;20.23;8.98;;;;;;;;;;5019250;28;20080;-72
2023/12/13 08:52:05;;;;;;;21.70;9.55;;;;;;;;;;5019555;28;20053;-71
2023/12/13 08:54:32;;;;;;;21.57;9.83;;;;;;;;;;5036917;28;20080;-71
2023/12/13 08:56:58;;;;;;;24.48;10.15;;;;;;;;;;5020226;28;20346;-73
2023/12/13 08:59:24;;;;;;;18.58;9.30;;;;;;;;;;5003777;28;20091;-72
2023/12/13 09:01:51;;;;;;;22.45;8.57;;;;;;;;;;5051893;28;20057;-71
2023/12/13 09:04:17;;;;;;;20.75;9.00;;;;;;;;;;5036818;28;20053;-72
2023/12/13 09:06:43;;;;;;;27.80;9.80;;;;;;;;;;5052070;28;20049;-73
2023/12/13 09:09:11;;;;;;;22.55;8.95;;;;;;;;;;5037141;28;20513;-72
2023/12/13 09:11:37;;;;;;;23.65;9.43;;;;;;;;;;5036627;28;20150;-72
2023/12/13 09:14:03;;;;;;;19.17;9.23;;;;;;;;;;5036619;28;20049;-71
2023/12/13 09:16:29;;;;;;;22.40;9.38;;;;;;;;;;5037050;28;20284;-72
2023/12/13 09:18:55;;;;;;;22.08;9.70;;;;;;;;;;5036342;28;20042;-73
2023/12/13 09:21:22;;;;;;;26.60;9.43;;;;;;;;;;5037232;28;20107;-73
2023/12/13 09:23:48;;;;;;;23.27;10.25;;;;;;;;;;5036358;28;20133;-73
2023/12/13 09:26:14;;;;;;;20.80;10.05;;;;;;;;;;5037017;28;20103;-73
2023/12/13 09:28:40;;;;;;;20.65;9.20;;;;;;;;;;5019110;28;20042;-73
2023/12/13 09:31:07;;;;;;;22.33;10.27;;;;;;;;;;5036281;28;20108;-73
2023/12/13 09:33:34;;;;;;;20.58;9.38;;;;;;;;;;5036242;28;20337;-72
2023/12/13 09:36:00;;;;;;;26.50;10.20;;;;;;;;;;5002718;28;20060;-73
2023/12/13 09:38:26;;;;;;;22.90;10.10;;;;;;;;;;5034980;28;20398;-74
2023/12/13 09:40:52;;;;;;;18.73;8.95;;;;;;;;;;5036795;28;20045;-72
2023/12/13 09:43:20;;;;;;;21.48;10.32;;;;;;;;;;5036015;28;20091;-73
2023/12/13 09:45:45;;;;;;;;;;;;;;;;;;5036754;28;20056;-73
2023/12/13 09:48:14;;;;;;;20.35;9.48;;;;;;;;;;5036120;28;19941;-73
2023/12/13 09:50:42;;;;;;;20.02;9.15;;;;;;;;;;5035640;28;20558;-74
2023/12/13 09:53:09;;;;;;;22.77;9.95;;;;;;;;;;5036686;28;20130;-73
2023/12/13 09:55:35;;;;;;;22.83;9.75;;;;;;;;;;5036611;28;20045;-73
2023/12/13 09:58:01;;;;;;;66.90;37.67;;;;;;;;;;5035709;28;20096;-73
2023/12/13 10:00:27;;;;;;;67.85;36.75;;;;;;;;;;5035812;28;20378;-73
2023/12/13 10:02:54;;;;;;;31.77;16.38;;;;;;;;;;5036141;28;20061;-73
2023/12/13 10:05:22;;;;;;;24.67;15.35;;;;;;;;;;5035719;28;20060;-73
2023/12/13 10:07:48;;;;;;;22.33;11.68;;;;;;;;;;5035560;28;20049;-73
2023/12/13 10:10:15;;;;;;;20.15;9.23;;;;;;;;;;5035345;28;20045;-73
2023/12/13 10:12:42;;;;;;;22.45;9.90;;;;;;;;;;5036279;28;20359;-73
2023/12/13 10:15:10;;;;;;;19.75;9.27;;;;;;;;;;5035531;28;20202;-73
2023/12/13 10:17:36;;;;;;;;;;;;;;;;;;5036174;28;20502;-75
2023/12/13 10:20:02;;;;;;;20.67;9.03;;;;;;;;;;5017613;28;19921;-73
2023/12/13 10:22:29;;;;;;;26.17;9.88;;;;;;;;;;5035233;28;20058;-73
2023/12/13 10:24:57;;;;;;;21.63;9.43;;;;;;;;;;5035816;28;20093;-74
2023/12/13 10:27:23;;;;;;;23.60;9.68;;;;;;;;;;5035253;28;20049;-74
2023/12/13 10:29:49;;;;;;;23.30;9.43;;;;;;;;;;5035127;28;20069;-74
2023/12/13 10:32:18;;;;;;;23.37;9.40;;;;;;;;;;5018015;28;20471;-74
2023/12/13 10:34:44;;;;;;;18.95;9.30;;;;;;;;;;5017538;28;20064;-75
2023/12/13 10:37:10;;;;;;;18.92;8.90;;;;;;;;;;5034778;28;20487;-74
2023/12/13 10:39:37;;;;;;;22.47;9.93;;;;;;;;;;5017283;28;20088;-74
2023/12/13 10:42:03;;;;;;;22.33;9.90;;;;;;;;;;5018109;28;20326;-73
2023/12/13 10:44:32;;;;;;;25.90;9.18;;;;;;;;;;5034858;28;20049;-74
2023/12/13 10:46:59;;;;;;;19.63;9.05;;;;;;;;;;5017109;28;20103;-74
2023/12/13 10:49:26;;;;;;;21.90;9.68;;;;;;;;;;5035318;28;20498;-74
2023/12/13 10:51:53;;;;;;;19.60;9.50;;;;;;;;;;5034706;28;20065;-74
2023/12/13 10:54:19;;;;;;;21.08;9.95;;;;;;;;;;5035522;28;20387;-74
2023/12/13 10:56:45;;;;;;;21.08;9.38;;;;;;;;;;5035447;28;20103;-75
2023/12/13 10:59:12;;;;;;;53.38;28.95;;;;;;;;;;5034238;28;20115;-73
2023/12/13 11:01:41;;;;;;;47.38;28.50;;;;;;;;;;5013384;28;20058;-74
2023/12/13 11:04:09;;;;;;;23.17;10.35;;;;;;;;;;5013674;28;20100;-74
2023/12/13 11:06:37;;;;;;;40.47;27.95;;;;;;;;;;5013983;28;20065;-74
2023/12/13 11:09:13;;;;;;;22.75;9.82;;;;;;;;;;5014681;28;20050;-73
2023/12/13 11:11:41;;;;;;;21.73;10.80;;;;;;;;;;4998138;28;20058;-75
2023/12/13 11:14:08;;;;;;;20.05;9.65;;;;;;;;;;5014518;28;20085;-73
2023/12/13 11:16:42;;;;;;;19.52;9.30;;;;;;;;;;5014360;28;20489;-74
2023/12/13 11:19:11;;;;;;;19.73;9.88;;;;;;;;;;5014442;28;20042;-74
2023/12/13 11:21:38;;;;;;;21.40;9.57;;;;;;;;;;5013460;28;20069;-73
2023/12/13 11:24:12;;;;;;;21.88;10.25;;;;;;;;;;5013093;28;20069;-74
2023/12/13 11:26:42;;;;;;;24.63;9.95;;;;;;;;;;5013476;28;20128;-75
2023/12/13 11:29:21;;;;;;;21.50;9.98;;;;;;;;;;5014330;28;20095;-74
2023/12/13 11:31:53;;;;;;;24.42;10.02;;;;;;;;;;5014363;28;20434;-74
2023/12/13 11:34:38;;;;;;;17.17;9.23;;;;;;;;;;5013303;28;20046;-74
2023/12/13 11:37:06;;;;;;;25.13;9.93;;;;;;;;;;5014446;28;20056;-74
2023/12/13 11:39:33;;;;;;;18.95;9.70;;;;;;;;;;5014294;28;20134;-74
2023/12/13 11:42:00;;;;;;;22.98;9.45;;;;;;;;;;5014613;28;20133;-74
2023/12/13 11:44:28;;;;;;;20.27;9.90;;;;;;;;;;5014595;28;20050;-74
2023/12/13 11:46:55;;;;;;;22.67;9.60;;;;;;;;;;5013964;28;20045;-74
2023/12/13 11:49:22;;;;;;;21.83;10.30;;;;;;;;;;5013346;28;20144;-74
2023/12/13 11:51:48;;;;;;;25.55;10.27;;;;;;;;;;5013948;28;20124;-75
2023/12/13 11:54:14;;;;;;;20.90;9.63;;;;;;;;;;5013938;28;20132;-74
2023/12/13 11:56:43;;;;;;;20.67;9.73;;;;;;;;;;5014270;28;20145;-75
2023/12/13 11:59:09;;;;;;;19.92;9.35;;;;;;;;;;5012630;28;20056;-73
2023/12/13 12:01:36;;;;;;;19.83;10.30;;;;;;;;;;5017576;28;20144;-73
2023/12/13 12:04:02;;;;;;;20.93;10.17;;;;;;;;;;5016385;28;20084;-74
2023/12/13 12:06:29;;;;;;;18.70;9.63;;;;;;;;;;5033452;28;20347;-73
2023/12/13 12:08:55;;;;;;;22.17;10.40;;;;;;;;;;5033767;28;20064;-73
2023/12/13 12:11:24;;;;;;;19.80;9.85;;;;;;;;;;5033124;28;20041;-74
2023/12/13 12:13:51;;;;;;;20.88;10.70;;;;;;;;;;5033305;28;20049;-73
2023/12/13 12:16:17;;;;;;;21.13;10.95;;;;;;;;;;5033273;28;20053;-75
2023/12/13 12:18:44;;;;;;;22.92;11.25;;;;;;;;;;5033760;28;20041;-74
2023/12/13 12:21:11;;;;;;;22.08;11.10;;;;;;;;;;5015518;28;20049;-74
2023/12/13 12:23:41;;;;;;;23.23;9.93;;;;;;;;;;5016565;28;20480;-74
2023/12/13 12:26:08;;;;;;;20.05;10.35;;;;;;;;;;5033093;28;20049;-73
2023/12/13 12:28:34;;;;;;;28.77;10.45;;;;;;;;;;5033281;28;20042;-73
2023/12/13 12:31:02;;;;;;;23.63;10.50;;;;;;;;;;5033070;28;20045;-73
2023/12/13 12:33:28;;;;;;;26.83;10.83;;;;;;;;;;5033004;28;20501;-73
2023/12/13 12:35:55;;;;;;;22.77;10.68;;;;;;;;;;5033247;28;20056;-74
2023/12/13 12:38:21;;;;;;;24.60;10.02;;;;;;;;;;5048344;28;20132;-74
2023/12/13 12:40:48;;;;;;;20.15;9.15;;;;;;;;;;5033614;28;20046;-74
2023/12/13 12:43:18;;;;;;;20.10;10.25;;;;;;;;;;5033001;28;20053;-73
2023/12/13 12:45:44;;;;;;;21.67;9.63;;;;;;;;;;5033076;28;20103;-74
2023/12/13 12:48:10;;;;;;;19.35;9.10;;;;;;;;;;5033109;28;20441;-73
2023/12/13 12:50:36;;;;;;;18.70;9.60;;;;;;;;;;5033121;28;20057;-74
2023/12/13 12:53:02;;;;;;;21.00;9.60;;;;;;;;;;5032928;28;20056;-74
2023/12/13 12:55:29;;;;;;;20.77;9.20;;;;;;;;;;5015617;28;20060;-74
2023/12/13 12:57:55;;;;;;;19.65;9.85;;;;;;;;;;5015777;28;20402;-74
2023/12/13 13:00:21;;;;;;;19.45;9.73;;;;;;;;;;5032698;28;20080;-73
2023/12/13 13:02:48;;;;;;;21.73;9.32;;;;;;;;;;5032542;28;20061;-74
2023/12/13 13:05:14;;;;;;;19.83;9.57;;;;;;;;;;5032885;28;20132;-73
2023/12/13 13:07:41;;;;;;;19.60;9.68;;;;;;;;;;5033663;28;20410;-74
2023/12/13 13:10:10;;;;;;;21.63;9.45;;;;;;;;;;5033028;28;20124;-74
2023/12/13 13:12:38;;;;;;;19.75;9.25;;;;;;;;;;5032902;28;20498;-73
2023/12/13 13:15:06;;;;;;;23.50;9.90;;;;;;;;;;5031156;28;20041;-73
2023/12/13 13:17:32;;;;;;;20.02;9.13;;;;;;;;;;5032750;28;20136;-74
2023/12/13 13:19:58;;;;;;;21.27;9.88;;;;;;;;;;5032604;28;20474;-74
2023/12/13 13:22:24;;;;;;;20.42;9.35;;;;;;;;;;5033948;28;20080;-73
2023/12/13 13:24:50;;;;;;;20.33;8.27;;;;;;;;;;5036338;28;20049;-74
2023/12/13 13:27:16;;;;;;;23.65;9.68;;;;;;;;;;5018506;28;20060;-73
2023/12/13 13:29:42;;;;;;;21.25;9.15;;;;;;;;;;5036291;28;20037;-74
2023/12/13 13:32:09;;;;;;;25.92;9.98;;;;;;;;;;5018251;28;20132;-73
2023/12/13 13:34:35;;;;;;;20.58;8.77;;;;;;;;;;5036356;28;20050;-75
2023/12/13 13:37:01;;;;;;;24.73;9.60;;;;;;;;;;5036214;28;20083;-74
2023/12/13 13:39:27;;;;;;;22.60;9.65;;;;;;;;;;5002157;28;20051;-73
2023/12/13 13:41:53;;;;;;;21.33;9.10;;;;;;;;;;5002245;28;20045;-74
2023/12/13 13:44:19;;;;;;;21.00;8.80;;;;;;;;;;5036016;28;20060;-73
2023/12/13 13:46:50;;;;;;;27.67;9.45;;;;;;;;;;5036139;28;20052;-73
2023/12/13 13:49:16;;;;;;;20.58;8.88;;;;;;;;;;5036707;28;20049;-73
2023/12/13 13:51:43;;;;;;;24.67;10.63;;;;;;;;;;5036558;28;20068;-73
2023/12/13 13:54:10;;;;;;;25.35;10.63;;;;;;;;;;5036515;28;20284;-73
2023/12/13 13:56:37;;;;;;;21.33;9.73;;;;;;;;;;5036864;28;20379;-73
2023/12/13 13:59:03;;;;;;;22.80;9.20;;;;;;;;;;5018678;28;20449;-73
2023/12/13 14:01:31;;;;;;;25.53;9.73;;;;;;;;;;5001984;28;20386;-72
2023/12/13 14:04:00;;;;;;;23.70;9.43;;;;;;;;;;5036233;28;20053;-73
2023/12/13 14:06:28;;;;;;;24.15;9.82;;;;;;;;;;5035496;28;20407;-74
2023/12/13 14:08:54;;;;;;;27.60;9.15;;;;;;;;;;5035653;28;20100;-74
2023/12/13 14:11:20;;;;;;;22.27;9.73;;;;;;;;;;5035437;28;20133;-73
2023/12/13 14:13:47;;;;;;;24.25;9.88;;;;;;;;;;5018544;28;20466;-74
2023/12/13 14:16:13;;;;;;;23.50;10.33;;;;;;;;;;5035328;28;20082;-71
2023/12/13 14:18:39;;;;;;;20.38;9.70;;;;;;;;;;5050951;28;20462;-72
2023/12/13 14:21:06;;;;;;;25.83;10.40;;;;;;;;;;5035403;28;20056;-73